createdAt,value
2022-12-25T00:02:03.128Z,76.78
2022-12-25T00:07:06.411Z,77.42
2022-12-25T00:12:08.391Z,77.54
2022-12-25T00:17:10.414Z,77.33
2022-12-25T00:22:13.723Z,77.45
2022-12-25T00:27:16.470Z,78.05
2022-12-25T00:32:18.474Z,78.16
2022-12-25T00:37:21.761Z,79.01
2022-12-25T00:42:23.886Z,78.75
2022-12-25T00:47:25.861Z,78.58
2022-12-25T00:52:29.169Z,78.99
2022-12-25T00:57:31.420Z,79.37
2022-12-25T01:02:33.532Z,79.06
2022-12-25T01:07:37.231Z,79.33
2022-12-25T01:12:42.052Z,78.99
2022-12-25T01:17:44.514Z,79.56
2022-12-25T01:22:47.805Z,79.26
2022-12-25T01:27:49.767Z,79.16
2022-12-25T01:32:51.712Z,79.24
2022-12-25T01:37:55.441Z,78.79
2022-12-25T01:42:57.441Z,77.88
2022-12-25T01:48:01.448Z,77.59
2022-12-25T01:53:05.966Z,77.82
2022-12-25T01:58:08.161Z,77.55
2022-12-25T02:03:10.180Z,77.60
2022-12-25T02:08:16.397Z,77.81
2022-12-25T02:13:20.176Z,77.40
2022-12-25T02:18:34.000Z,77.53
2022-12-25T02:23:56.952Z,78.28
2022-12-25T02:29:05.145Z,77.19
2022-12-25T02:34:14.663Z,76.90
2022-12-25T02:39:42.295Z,76.84
2022-12-25T02:45:08.377Z,75.40
2022-12-25T02:50:29.692Z,76.53
2022-12-25T02:55:56.398Z,76.05
2022-12-25T03:01:24.984Z,75.55
2022-12-25T03:06:43.501Z,76.16
2022-12-25T03:11:47.533Z,76.01
2022-12-25T03:16:54.236Z,76.40
2022-12-25T03:22:16.124Z,75.12
2022-12-25T03:27:18.205Z,76.82
2022-12-25T03:32:29.295Z,77.32
2022-12-25T03:37:44.232Z,76.02
2022-12-25T03:43:11.248Z,75.49
2022-12-25T03:48:35.159Z,74.79
2022-12-25T03:53:59.311Z,74.68
2022-12-25T03:59:23.876Z,74.48
2022-12-25T04:04:46.156Z,75.30
2022-12-25T04:10:06.375Z,74.40
2022-12-25T04:15:28.508Z,74.15
2022-12-25T04:20:50.549Z,73.85
2022-12-25T04:26:11.340Z,73.65
2022-12-25T04:31:32.188Z,74.23
2022-12-25T04:36:35.543Z,74.19
2022-12-25T04:41:37.463Z,74.05
2022-12-25T04:46:39.511Z,73.84
2022-12-25T04:51:42.848Z,73.48
2022-12-25T04:56:45.997Z,73.69
2022-12-25T05:01:48.168Z,74.18
2022-12-25T05:06:51.535Z,74.94
2022-12-25T05:11:53.534Z,73.30
2022-12-25T05:16:55.493Z,73.71
2022-12-25T05:21:58.915Z,74.68
2022-12-25T05:27:00.922Z,74.27
2022-12-25T05:32:02.998Z,74.07
2022-12-25T05:37:06.382Z,74.40
2022-12-25T05:42:08.324Z,75.21
2022-12-25T05:47:10.367Z,75.50
2022-12-25T05:52:13.676Z,75.03
2022-12-25T05:57:15.649Z,75.27
2022-12-25T06:02:17.646Z,76.64
2022-12-25T06:07:21.217Z,77.33
2022-12-25T06:12:23.176Z,77.67
2022-12-25T06:17:25.705Z,78.60
2022-12-25T06:22:30.243Z,80.19
2022-12-25T06:27:32.389Z,80.53
2022-12-25T06:32:34.365Z,79.33
2022-12-25T06:37:37.643Z,78.86
2022-12-25T06:42:39.691Z,77.63
2022-12-25T06:47:41.637Z,76.79
2022-12-25T06:52:46.098Z,76.47
2022-12-25T06:57:48.109Z,76.86
2022-12-25T07:02:50.439Z,78.44
2022-12-25T07:07:53.991Z,80.16
2022-12-25T07:12:55.983Z,80.67
2022-12-25T07:17:57.928Z,80.77
2022-12-25T07:23:01.248Z,79.62
2022-12-25T07:28:03.455Z,80.29
2022-12-25T07:33:05.423Z,81.42
2022-12-25T07:38:08.865Z,81.72
2022-12-25T07:43:10.825Z,82.58
2022-12-25T07:48:16.697Z,82.33
2022-12-25T07:53:20.419Z,82.87
2022-12-25T07:58:23.621Z,80.88
2022-12-25T08:03:25.839Z,80.69
2022-12-25T08:08:29.501Z,81.00
2022-12-25T08:13:32.326Z,81.22
2022-12-25T08:18:35.333Z,80.96
2022-12-25T08:23:41.105Z,79.88
2022-12-25T08:28:43.429Z,79.87
2022-12-25T08:33:46.445Z,80.02
2022-12-25T08:38:50.270Z,80.02
2022-12-25T08:43:52.195Z,79.37
2022-12-25T08:48:54.260Z,78.61
2022-12-25T08:53:59.971Z,79.22
2022-12-25T08:59:03.039Z,79.22
2022-12-25T09:04:05.305Z,79.07
2022-12-25T09:09:08.681Z,78.35
2022-12-25T09:14:10.749Z,77.61
2022-12-25T09:19:12.698Z,75.49
2022-12-25T09:24:16.081Z,75.51
2022-12-25T09:29:18.160Z,75.00
2022-12-25T09:34:20.116Z,73.34
2022-12-25T09:39:23.459Z,73.52
2022-12-25T09:44:28.892Z,73.28
2022-12-25T09:49:38.705Z,72.11
2022-12-25T09:54:46.443Z,71.80
2022-12-25T09:59:48.659Z,71.00
2022-12-25T10:05:12.829Z,70.60
2022-12-25T10:10:35.286Z,69.81
2022-12-25T10:15:48.294Z,69.93
2022-12-25T10:20:52.636Z,69.34
2022-12-25T10:25:56.281Z,69.51
2022-12-25T10:31:02.076Z,67.86
2022-12-25T10:36:04.555Z,67.87
2022-12-25T10:41:25.399Z,66.68
2022-12-25T10:46:29.596Z,67.29
2022-12-25T10:51:34.100Z,66.22
2022-12-25T10:56:37.468Z,67.04
2022-12-25T11:01:39.410Z,67.34
2022-12-25T11:06:42.781Z,67.76
2022-12-25T11:11:47.014Z,66.55
2022-12-25T11:16:49.920Z,65.90
2022-12-25T11:21:54.395Z,64.94
2022-12-25T11:27:00.329Z,66.03
2022-12-25T11:32:05.711Z,65.20
2022-12-25T11:37:14.074Z,67.62
2022-12-25T11:42:22.579Z,68.05
2022-12-25T11:47:30.978Z,62.74
2022-12-25T11:52:36.404Z,67.42
2022-12-25T11:57:41.686Z,68.79
2022-12-25T12:02:47.310Z,68.99
2022-12-25T12:07:55.392Z,68.51
2022-12-25T12:13:07.620Z,67.27
2022-12-25T12:18:18.739Z,68.08
2022-12-25T12:23:20.823Z,65.93
2022-12-25T12:28:26.868Z,68.25
2022-12-25T12:33:34.736Z,67.91
2022-12-25T12:38:37.107Z,67.69
2022-12-25T12:43:44.538Z,66.52
2022-12-25T12:48:49.277Z,68.63
2022-12-25T12:53:51.311Z,69.12
2022-12-25T12:58:54.790Z,69.15
2022-12-25T13:04:19.613Z,69.01
2022-12-25T13:09:33.109Z,69.41
2022-12-25T13:14:37.959Z,70.28
2022-12-25T13:19:42.941Z,71.06
2022-12-25T13:24:56.166Z,69.79
2022-12-25T13:30:00.069Z,70.90
2022-12-25T13:35:02.336Z,70.85
2022-12-25T13:40:07.079Z,71.15
2022-12-25T13:45:22.544Z,71.26
2022-12-25T13:50:26.924Z,72.99
2022-12-25T13:55:30.468Z,72.84
2022-12-25T14:00:37.387Z,73.01
2022-12-25T14:05:43.047Z,73.73
2022-12-25T14:10:49.443Z,74.02
2022-12-25T14:15:56.358Z,74.24
2022-12-25T14:21:01.539Z,73.94
2022-12-25T14:26:03.649Z,74.16
2022-12-25T14:31:12.154Z,73.94
2022-12-25T14:36:14.413Z,74.63
2022-12-25T14:41:33.455Z,72.55
2022-12-25T14:46:37.314Z,71.03
2022-12-25T14:51:39.422Z,70.50
2022-12-25T14:56:47.634Z,68.67
2022-12-25T15:01:54.279Z,69.26
2022-12-25T15:06:59.434Z,67.81
2022-12-25T15:12:02.342Z,67.87
2022-12-25T15:17:05.831Z,68.57
2022-12-25T15:22:10.043Z,68.82
2022-12-25T15:27:15.344Z,69.15
2022-12-25T15:32:20.852Z,68.24
2022-12-25T15:37:22.829Z,67.95
2022-12-25T15:42:25.402Z,68.11
2022-12-25T15:47:28.730Z,67.86
2022-12-25T15:52:31.162Z,69.41
2022-12-25T15:57:35.060Z,70.22
2022-12-25T16:02:38.599Z,68.94
2022-12-25T16:07:40.863Z,68.08
2022-12-25T16:12:43.500Z,68.38
2022-12-25T16:17:46.811Z,67.86
2022-12-25T16:22:48.881Z,67.99
2022-12-25T16:27:50.886Z,65.94
2022-12-25T16:32:54.256Z,65.86
2022-12-25T16:37:56.287Z,65.00
2022-12-25T16:42:58.476Z,64.28
2022-12-25T16:48:01.771Z,64.23
2022-12-25T16:53:03.742Z,64.07
2022-12-25T16:58:06.256Z,63.37
2022-12-25T17:03:09.736Z,62.34
2022-12-25T17:08:11.825Z,64.00
2022-12-25T17:13:13.845Z,62.96
2022-12-25T17:18:17.523Z,64.27
2022-12-25T17:23:20.217Z,65.14
2022-12-25T17:28:22.244Z,64.56
2022-12-25T17:33:25.772Z,63.28
2022-12-25T17:38:29.322Z,64.07
2022-12-25T17:43:31.765Z,63.14
2022-12-25T17:48:38.016Z,62.92
2022-12-25T17:53:43.266Z,63.10
2022-12-25T17:58:50.638Z,63.30
2022-12-25T18:03:54.983Z,63.63
2022-12-25T18:08:57.958Z,63.20
2022-12-25T18:14:02.596Z,63.02
2022-12-25T18:19:06.383Z,64.84
2022-12-25T18:24:08.985Z,64.45
2022-12-25T18:29:11.531Z,65.91
2022-12-25T18:34:15.525Z,66.35
2022-12-25T18:39:17.526Z,66.18
2022-12-25T18:44:19.571Z,67.50
2022-12-25T18:49:22.902Z,66.52
2022-12-25T18:54:25.334Z,67.24
2022-12-25T18:59:28.216Z,66.83
2022-12-25T19:04:31.587Z,66.74
2022-12-25T19:09:33.483Z,67.27
2022-12-25T19:14:47.397Z,66.84
2022-12-25T19:19:52.590Z,67.07
2022-12-25T19:24:54.544Z,67.61
2022-12-25T19:29:56.530Z,66.54
2022-12-25T19:35:04.267Z,67.57
2022-12-25T19:40:06.969Z,67.33
2022-12-25T19:45:09.638Z,67.03
2022-12-25T19:50:13.042Z,66.06
2022-12-25T19:55:15.192Z,67.00
2022-12-25T20:00:17.963Z,66.83
2022-12-25T20:05:21.270Z,66.59
2022-12-25T20:10:23.593Z,66.58
2022-12-25T20:15:25.595Z,66.35
2022-12-25T20:20:29.438Z,65.95
2022-12-25T20:25:31.751Z,65.95
2022-12-25T20:30:33.815Z,65.02
2022-12-25T20:35:37.141Z,67.47
2022-12-25T20:41:08.056Z,65.96
2022-12-25T20:46:01.237Z,68.25
2022-12-25T20:51:09.836Z,67.84
2022-12-25T20:56:13.815Z,67.56
2022-12-25T21:01:17.530Z,67.62
2022-12-25T21:06:21.614Z,66.61
2022-12-25T21:11:23.725Z,67.18
2022-12-25T21:16:26.089Z,66.64
2022-12-25T21:21:29.497Z,67.85
2022-12-25T21:26:31.803Z,67.90
2022-12-25T21:31:52.732Z,67.58
2022-12-25T21:36:56.066Z,67.80
2022-12-25T21:41:58.047Z,68.39
2022-12-25T21:47:00.070Z,66.66
2022-12-25T21:52:09.659Z,68.37
2022-12-25T21:57:11.743Z,68.16
2022-12-25T22:02:13.865Z,69.14
2022-12-25T22:07:17.328Z,69.75
2022-12-25T22:12:39.340Z,68.44
2022-12-25T22:18:01.721Z,69.35
2022-12-25T22:23:05.688Z,68.74
2022-12-25T22:28:08.473Z,69.56
2022-12-25T22:33:10.559Z,68.08
2022-12-25T22:38:13.937Z,70.75
2022-12-25T22:43:15.783Z,69.76
2022-12-25T22:48:17.792Z,69.22
2022-12-25T22:53:21.142Z,69.78
2022-12-25T22:58:22.978Z,69.97
2022-12-25T23:03:25.064Z,70.57
2022-12-25T23:08:28.621Z,69.59
2022-12-25T23:13:49.187Z,71.72
2022-12-25T23:19:10.039Z,70.97
2022-12-25T23:24:32.112Z,71.01
2022-12-25T23:29:37.226Z,70.43
2022-12-25T23:34:41.608Z,70.67
2022-12-25T23:39:45.222Z,70.70
2022-12-25T23:44:47.221Z,71.57
2022-12-25T23:49:49.162Z,71.59
2022-12-25T23:54:52.893Z,72.26
2022-12-25T23:59:54.834Z,71.40
